Time;durP1;ratioP1;P1;durP2;ratioP2;P2;SDS_P1;SDS_P2;PMS_P1;PMS_P2;Temp;Humidity;BMP_temperature;BMP_pressure;BME280_temperature;BME280_humidity;BME280_pressure;Samples;Min_cycle;Max_cycle;Signal;HPM_P1;HPM_P2
2022/05/21 00:01:06;;;;;;;8.53;2.67;;;14.20;80.80;;;;;;5018884;28;20219;-87
2022/05/21 00:03:31;;;;;;;3.80;2.50;;;14.20;80.40;;;;;;5018608;28;20216;-87
2022/05/21 00:05:57;;;;;;;5.23;2.97;;;14.20;80.60;;;;;;5017714;28;20413;-87
2022/05/21 00:08:23;;;;;;;6.20;3.80;;;14.20;80.90;;;;;;5018599;28;20213;-88
2022/05/21 00:10:49;;;;;;;4.13;2.63;;;14.10;81.50;;;;;;5019083;28;20216;-87
2022/05/21 00:13:21;;;;;;;10.07;2.80;;;14.20;81.20;;;;;;5019872;28;20213;-87
2022/05/21 00:15:47;;;;;;;9.50;3.38;;;14.20;81.10;;;;;;5038921;28;20743;-88
2022/05/21 00:18:13;;;;;;;5.60;2.77;;;14.10;81.10;;;;;;5024509;28;20819;-87
2022/05/21 00:20:48;;;;;;;6.50;3.00;;;14.20;80.80;;;;;;5020579;28;20178;-87
2022/05/21 00:23:24;;;;;;;5.82;2.90;;;14.10;81.50;;;;;;5028222;28;20223;-89
2022/05/21 00:26:12;;;;;;;7.60;3.35;;;14.10;81.90;;;;;;5058617;28;20162;-88
2022/05/21 00:28:40;;;;;;;3.75;2.47;;;14.10;81.30;;;;;;5041188;28;20582;-89
2022/05/21 00:31:07;;;;;;;10.00;3.65;;;14.10;81.70;;;;;;5035560;28;20174;-88
2022/05/21 00:33:34;;;;;;;8.65;3.45;;;14.10;81.60;;;;;;5037464;28;20265;-88
2022/05/21 00:36:00;;;;;;;11.10;3.65;;;14.10;81.90;;;;;;5044873;28;20240;-89
2022/05/21 00:38:26;;;;;;;9.50;2.90;;;14.10;81.70;;;;;;5042409;28;20198;-88
2022/05/21 00:40:53;;;;;;;5.40;3.22;;;14.10;81.90;;;;;;5036429;28;20416;-88
2022/05/21 00:43:40;;;;;;;7.88;2.70;;;14.00;82.00;;;;;;5025062;28;20202;-87
2022/05/21 00:46:10;;;;;;;6.05;3.22;;;14.00;82.10;;;;;;5030279;28;20269;-88
2022/05/21 00:48:37;;;;;;;4.78;2.75;;;14.00;82.50;;;;;;5041924;28;20194;-88
2022/05/21 00:51:06;;;;;;;7.95;3.22;;;14.00;82.40;;;;;;5037001;28;20170;-88
2022/05/21 00:53:33;;;;;;;9.10;3.45;;;14.00;82.30;;;;;;5036978;28;20181;-88
2022/05/21 00:55:59;;;;;;;8.82;2.97;;;14.00;82.00;;;;;;5017977;28;20181;-88
2022/05/21 01:01:16;;;;;;;15.93;3.20;;;14.00;82.20;;;;;;5039658;28;20197;-88
2022/05/21 01:03:43;;;;;;;9.43;2.78;;;14.00;82.20;;;;;;5004504;28;20277;-88
2022/05/21 01:06:11;;;;;;;8.48;2.78;;;14.00;82.70;;;;;;4997807;28;20554;-88
2022/05/21 01:08:38;;;;;;;9.18;3.47;;;13.90;82.60;;;;;;4997716;28;20602;-87
2022/05/21 01:11:10;;;;;;;7.22;3.83;;;13.90;82.90;;;;;;5015668;28;20171;-87
2022/05/21 01:13:38;;;;;;;7.97;3.00;;;13.90;83.20;;;;;;4998323;28;20182;-87
2022/05/21 01:16:05;;;;;;;13.20;3.70;;;13.90;83.20;;;;;;5022064;28;20180;-87
2022/05/21 01:18:31;;;;;;;9.02;4.28;;;13.90;83.40;;;;;;5016855;28;20202;-87
2022/05/21 01:20:59;;;;;;;11.33;3.37;;;13.90;83.00;;;;;;5020205;28;20224;-87
2022/05/21 01:23:27;;;;;;;4.65;2.60;;;13.90;83.20;;;;;;5035005;28;20535;-87
2022/05/21 01:25:55;;;;;;;11.48;3.05;;;13.90;83.60;;;;;;5017660;28;20221;-87
2022/05/21 01:28:23;;;;;;;6.85;3.25;;;13.90;83.60;;;;;;5016764;28;20193;-87
2022/05/21 01:30:58;;;;;;;12.02;3.90;;;13.90;83.50;;;;;;5017194;28;20189;-87
2022/05/21 01:33:30;;;;;;;13.95;3.28;;;13.80;83.40;;;;;;5016517;28;20177;-87
2022/05/21 01:35:57;;;;;;;10.07;3.35;;;13.80;84.40;;;;;;5035100;28;20312;-87
2022/05/21 01:38:24;;;;;;;13.25;3.72;;;13.80;83.70;;;;;;5016654;28;20211;-87
2022/05/21 01:40:50;;;;;;;8.60;3.50;;;13.80;83.50;;;;;;5017483;28;20182;-87
2022/05/21 01:46:00;;;;;;;11.55;3.15;;;13.80;83.90;;;;;;5020299;28;20189;-85
2022/05/21 01:48:28;;;;;;;12.55;3.97;;;13.80;83.80;;;;;;5016613;28;20190;-87
2022/05/21 01:50:55;;;;;;;8.73;3.67;;;13.80;84.40;;;;;;5016977;28;20189;-87
2022/05/21 01:53:22;;;;;;;5.80;3.35;;;13.70;84.50;;;;;;5017232;28;20404;-87
2022/05/21 01:55:49;;;;;;;15.30;3.50;;;13.70;84.50;;;;;;5017739;28;20197;-88
2022/05/21 01:58:16;;;;;;;7.90;3.15;;;13.80;84.20;;;;;;5018720;28;20202;-88
2022/05/21 02:00:42;;;;;;;5.20;3.03;;;13.70;83.80;;;;;;5016757;28;20186;-87
2022/05/21 02:03:11;;;;;;;8.18;3.70;;;13.70;83.90;;;;;;5034350;28;20225;-88
2022/05/21 02:05:37;;;;;;;13.73;3.35;;;13.70;84.40;;;;;;5021443;28;20228;-87
2022/05/21 02:08:04;;;;;;;5.53;3.33;;;13.70;84.20;;;;;;5019556;28;20209;-87
2022/05/21 02:10:31;;;;;;;14.10;3.42;;;13.70;84.70;;;;;;5023312;28;20249;-87
2022/05/21 02:12:56;;;;;;;9.05;3.10;;;13.70;84.60;;;;;;5032110;28;20177;-87
2022/05/21 02:15:22;;;;;;;6.70;3.73;;;13.60;84.60;;;;;;5027746;28;20586;-87
2022/05/21 02:17:48;;;;;;;8.80;3.72;;;13.60;84.60;;;;;;5039894;28;20212;-87
2022/05/21 02:20:14;;;;;;;12.80;3.90;;;13.70;84.60;;;;;;5017049;28;20186;-88
2022/05/21 02:22:40;;;;;;;6.80;2.97;;;13.70;84.80;;;;;;5016190;28;20243;-88
2022/05/21 02:25:07;;;;;;;11.43;3.90;;;13.70;84.70;;;;;;5017049;28;20420;-88
2022/05/21 02:27:34;;;;;;;9.45;3.03;;;13.60;84.80;;;;;;5033430;28;20198;-89
2022/05/21 02:30:00;;;;;;;9.18;3.35;;;13.70;85.30;;;;;;5032946;28;20186;-87
2022/05/21 02:32:26;;;;;;;15.88;4.40;;;13.60;85.50;;;;;;5035966;28;20220;-88
2022/05/21 02:34:51;;;;;;;6.40;3.63;;;13.60;85.50;;;;;;5033704;28;20241;-88
2022/05/21 02:40:02;;;;;;;11.20;3.70;;;13.50;86.00;;;;;;5038692;28;20176;-87
2022/05/21 02:42:43;;;;;;;9.05;3.25;;;13.50;85.40;;;;;;5021629;28;20557;-87
2022/05/21 02:45:11;;;;;;;12.95;4.10;;;13.50;85.30;;;;;;5020403;28;20197;-88
2022/05/21 02:47:37;;;;;;;6.22;3.60;;;13.50;85.30;;;;;;5029365;28;20200;-88
2022/05/21 02:50:04;;;;;;;8.68;4.20;;;13.50;85.40;;;;;;5049919;28;20221;-88
2022/05/21 02:52:31;;;;;;;10.70;4.35;;;13.50;85.70;;;;;;5040908;28;20186;-87
2022/05/21 02:54:57;;;;;;;9.68;3.50;;;13.50;85.90;;;;;;5034471;28;20178;-87
2022/05/21 02:57:23;;;;;;;10.13;4.65;;;13.40;85.50;;;;;;5026119;28;20205;-88
2022/05/21 02:59:50;;;;;;;11.30;4.20;;;13.40;85.80;;;;;;5039245;28;20178;-88
2022/05/21 03:02:17;;;;;;;7.57;4.45;;;13.40;86.10;;;;;;5038046;28;20174;-87
2022/05/21 03:04:43;;;;;;;15.32;3.90;;;13.40;86.10;;;;;;5032711;28;20205;-89
2022/05/21 03:07:09;;;;;;;7.50;4.22;;;13.40;85.90;;;;;;5018881;28;20206;-87
2022/05/21 03:12:19;;;;;;;11.85;5.15;;;13.40;86.30;;;;;;5033676;28;20423;-87
2022/05/21 03:14:44;;;;;;;14.63;5.10;;;13.50;86.40;;;;;;5016064;28;20182;-87
2022/05/21 03:17:11;;;;;;;13.27;4.87;;;13.40;86.60;;;;;;5030973;28;20201;-87
2022/05/21 03:19:38;;;;;;;10.40;5.07;;;13.40;86.70;;;;;;5024078;28;20612;-87
2022/05/21 03:22:04;;;;;;;12.48;5.53;;;13.40;86.70;;;;;;5016105;28;20213;-87
2022/05/21 03:24:30;;;;;;;14.57;6.93;;;13.40;86.60;;;;;;5015792;28;20229;-87
2022/05/21 03:26:56;;;;;;;11.88;5.47;;;13.40;86.60;;;;;;5033631;28;20662;-89
2022/05/21 03:29:23;;;;;;;14.32;6.40;;;13.40;86.80;;;;;;5016023;28;20224;-89
2022/05/21 03:31:49;;;;;;;7.25;4.80;;;13.40;87.00;;;;;;5016537;28;20209;-89
2022/05/21 03:34:15;;;;;;;11.30;5.90;;;13.50;86.80;;;;;;5017693;28;20182;-88
2022/05/21 03:36:40;;;;;;;18.50;6.20;;;13.40;87.00;;;;;;5036064;28;20277;-89
2022/05/21 03:39:10;;;;;;;19.40;6.17;;;13.40;87.10;;;;;;5018678;28;20261;-88
2022/05/21 03:41:36;;;;;;;12.75;5.28;;;13.40;87.20;;;;;;5022393;28;20417;-88
2022/05/21 03:44:03;;;;;;;16.63;6.80;;;13.40;87.10;;;;;;5021457;28;20737;-88
2022/05/21 03:46:29;;;;;;;11.38;6.07;;;13.40;87.20;;;;;;5019849;28;20178;-89
2022/05/21 03:48:54;;;;;;;19.13;6.50;;;13.40;87.30;;;;;;5037301;28;20550;-88
2022/05/21 03:51:20;;;;;;;19.03;6.00;;;13.40;87.30;;;;;;5019770;28;20807;-89
2022/05/21 03:53:46;;;;;;;15.17;7.90;;;13.40;87.30;;;;;;5019496;28;20236;-88
2022/05/21 03:56:12;;;;;;;15.07;7.75;;;13.30;87.20;;;;;;5019392;28;20273;-88
2022/05/21 03:58:38;;;;;;;15.20;7.05;;;13.40;87.70;;;;;;5018408;28;20296;-88
2022/05/21 04:01:05;;;;;;;16.77;8.43;;;13.40;87.80;;;;;;5037118;28;20198;-88
2022/05/21 04:03:33;;;;;;;17.23;7.90;;;13.40;87.60;;;;;;5019907;28;20204;-89
2022/05/21 04:05:59;;;;;;;15.73;8.50;;;13.40;87.70;;;;;;5057797;28;20197;-88
2022/05/21 04:08:25;;;;;;;17.20;8.40;;;13.40;87.50;;;;;;5023364;28;20584;-88
2022/05/21 04:10:51;;;;;;;17.93;9.13;;;13.50;87.40;;;;;;5018905;28;20451;-88
2022/05/21 04:13:17;;;;;;;25.87;8.87;;;13.50;87.40;;;;;;5019146;28;20680;-89
2022/05/21 04:15:44;;;;;;;13.98;8.80;;;13.50;87.90;;;;;;5020689;28;20415;-88
2022/05/21 04:18:11;;;;;;;19.55;8.77;;;13.50;87.70;;;;;;5029506;28;20198;-88
2022/05/21 04:20:37;;;;;;;13.73;8.23;;;13.60;88.50;;;;;;5020271;28;20595;-88
2022/05/21 04:23:03;;;;;;;21.03;9.33;;;13.70;87.80;;;;;;5018968;28;20194;-88
2022/05/21 04:25:29;;;;;;;22.27;8.60;;;13.80;87.20;;;;;;5037595;28;20436;-87
2022/05/21 04:27:57;;;;;;;20.42;7.43;;;13.80;86.90;;;;;;5007063;28;20202;-88
2022/05/21 04:30:27;;;;;;;21.95;10.73;;;13.90;86.80;;;;;;5017341;28;20177;-88
2022/05/21 04:32:54;;;;;;;11.85;7.78;;;13.90;86.60;;;;;;4983214;28;20556;-88
2022/05/21 04:35:20;;;;;;;16.92;9.25;;;14.00;86.50;;;;;;4999579;28;20171;-87
2022/05/21 04:37:47;;;;;;;13.05;8.15;;;14.10;86.00;;;;;;5025248;28;20190;-87
2022/05/21 04:40:17;;;;;;;18.83;9.40;;;14.00;86.00;;;;;;5026904;28;20201;-89
2022/05/21 04:42:43;;;;;;;20.80;8.93;;;14.00;86.00;;;;;;5020417;28;20189;-89
2022/05/21 04:45:10;;;;;;;24.60;9.20;;;14.10;86.10;;;;;;5036729;28;20261;-89
2022/05/21 04:47:36;;;;;;;22.30;8.40;;;14.10;85.90;;;;;;5036338;28;20677;-89
2022/05/21 04:50:03;;;;;;;25.30;10.25;;;14.20;85.80;;;;;;5019230;28;20185;-89
2022/05/21 04:52:30;;;;;;;20.00;9.10;;;14.20;85.70;;;;;;5019422;28;20174;-89
2022/05/21 04:54:56;;;;;;;17.52;9.38;;;14.20;86.00;;;;;;5019917;28;20194;-88
2022/05/21 04:57:22;;;;;;;22.30;10.63;;;14.20;85.80;;;;;;5020965;28;20582;-89
2022/05/21 04:59:47;;;;;;;18.47;9.77;;;14.30;85.70;;;;;;5022725;28;20208;-88
2022/05/21 05:02:13;;;;;;;17.47;8.63;;;14.20;85.60;;;;;;5025021;28;20192;-89
2022/05/21 05:04:39;;;;;;;24.17;9.07;;;14.20;85.70;;;;;;5020561;28;20201;-88
2022/05/21 05:07:07;;;;;;;20.87;9.00;;;14.30;85.70;;;;;;5037235;28;20532;-89
2022/05/21 05:09:41;;;;;;;24.65;9.30;;;14.30;85.60;;;;;;5004570;28;20463;-89
2022/05/21 05:12:08;;;;;;;20.80;9.10;;;14.30;85.40;;;;;;5038075;28;20169;-89
2022/05/21 05:14:34;;;;;;;16.33;6.78;;;14.40;85.20;;;;;;5019516;28;20209;-89
2022/05/21 05:17:00;;;;;;;15.07;8.10;;;14.70;84.50;;;;;;5024227;28;20202;-89
2022/05/21 05:19:29;;;;;;;19.57;9.47;;;14.80;83.50;;;;;;5024838;28;20235;-90
2022/05/21 05:21:55;;;;;;;22.35;8.70;;;14.80;83.40;;;;;;5022159;28;20297;-90
2022/05/21 05:24:21;;;;;;;15.37;8.40;;;15.30;82.90;;;;;;5023400;28;20252;-90
2022/05/21 05:26:46;;;;;;;21.20;7.37;;;15.70;81.40;;;;;;5024493;28;20448;-90
2022/05/21 05:29:12;;;;;;;18.43;8.47;;;16.10;80.20;;;;;;5025500;28;20196;-86
2022/05/21 05:31:38;;;;;;;15.40;8.30;;;16.40;78.00;;;;;;5025088;28;20197;-89
2022/05/21 05:34:04;;;;;;;16.57;8.80;;;16.90;75.90;;;;;;5028525;28;20180;-89
2022/05/21 05:36:30;;;;;;;16.63;8.25;;;17.50;74.00;;;;;;5039579;28;20174;-89
2022/05/21 05:38:59;;;;;;;17.53;8.50;;;17.70;71.60;;;;;;5019385;28;20559;-90
2022/05/21 05:41:26;;;;;;;22.90;10.18;;;17.70;71.20;;;;;;5020482;28;20944;-90
2022/05/21 05:43:54;;;;;;;18.33;9.43;;;17.60;71.40;;;;;;5036724;28;20212;-89
2022/05/21 05:46:20;;;;;;;23.83;11.02;;;17.60;71.30;;;;;;5013573;28;20174;-89
2022/05/21 05:48:45;;;;;;;17.10;9.32;;;17.50;71.10;;;;;;5014691;28;20190;-90
2022/05/21 05:51:13;;;;;;;16.10;9.70;;;17.30;71.70;;;;;;4997931;28;20686;-89
2022/05/21 05:53:39;;;;;;;20.52;10.55;;;17.30;72.30;;;;;;5001749;28;20197;-89
2022/05/21 05:56:08;;;;;;;18.87;8.93;;;17.10;73.00;;;;;;5023475;28;20235;-89
2022/05/21 06:01:27;;;;;;;18.50;9.32;;;17.10;73.00;;;;;;5016259;28;20178;-89
2022/05/21 06:03:54;;;;;;;22.50;9.47;;;17.00;73.90;;;;;;4999037;28;20206;-90
2022/05/21 06:06:20;;;;;;;20.02;9.73;;;17.10;73.50;;;;;;4998880;28;20433;-90
2022/05/21 06:08:46;;;;;;;20.40;9.20;;;17.30;72.90;;;;;;5004148;28;20214;-89
2022/05/21 06:11:13;;;;;;;19.07;8.50;;;17.30;72.60;;;;;;5037067;28;20201;-90
2022/05/21 06:13:39;;;;;;;25.13;9.80;;;17.40;72.40;;;;;;5029118;28;20416;-90
2022/05/21 06:16:05;;;;;;;24.70;9.43;;;17.70;71.40;;;;;;5018467;28;20178;-90
2022/05/21 06:18:31;;;;;;;20.15;8.18;;;18.10;70.00;;;;;;5040586;28;20197;-90
2022/05/21 06:21:04;;;;;;;21.27;9.17;;;18.10;68.90;;;;;;5035203;28;20174;-90
2022/05/21 06:23:31;;;;;;;18.17;7.53;;;18.30;68.40;;;;;;5017690;28;20455;-90
2022/05/21 06:26:11;;;;;;;20.60;9.13;;;18.40;68.30;;;;;;5017732;28;20178;-91
2022/05/21 06:28:38;;;;;;;14.97;7.30;;;18.50;67.60;;;;;;5019366;28;20213;-91
2022/05/21 06:31:06;;;;;;;21.85;8.35;;;18.80;66.90;;;;;;5024882;28;20451;-91
2022/05/21 06:33:32;;;;;;;18.27;9.38;;;18.70;66.70;;;;;;5023359;28;20182;-92
2022/05/21 06:36:16;;;;;;;10.47;7.37;;;18.60;66.70;;;;;;5022997;28;20265;-92
2022/05/21 06:38:44;;;;;;;19.45;7.97;;;18.50;67.10;;;;;;5021601;28;20471;-90
2022/05/21 06:41:10;;;;;;;14.30;7.50;;;18.30;68.20;;;;;;5020511;28;20186;-89
2022/05/21 06:43:37;;;;;;;12.02;7.05;;;18.10;68.70;;;;;;5017291;28;20205;-90
2022/05/21 06:46:03;;;;;;;18.25;9.00;;;18.20;69.50;;;;;;5017340;28;20276;-90
2022/05/21 06:48:28;;;;;;;15.88;8.48;;;18.20;68.20;;;;;;5017648;28;20209;-89
2022/05/21 06:50:54;;;;;;;20.00;9.57;;;18.30;68.80;;;;;;5038983;28;20178;-90
2022/05/21 06:53:20;;;;;;;22.15;8.52;;;18.30;68.60;;;;;;5020445;28;20174;-89
2022/05/21 06:55:46;;;;;;;23.53;10.40;;;18.10;68.50;;;;;;5035764;28;20192;-89
2022/05/21 06:58:12;;;;;;;18.83;8.80;;;17.90;68.90;;;;;;5019078;28;20198;-89
2022/05/21 07:00:43;;;;;;;23.65;10.23;;;17.80;69.30;;;;;;5018655;28;20255;-90
2022/05/21 07:03:09;;;;;;;16.30;8.70;;;17.70;69.60;;;;;;5017926;28;20193;-90
2022/05/21 07:08:28;;;;;;;15.93;8.57;;;17.40;70.40;;;;;;5035334;28;20219;-87
2022/05/21 07:10:56;;;;;;;17.70;9.55;;;17.30;71.10;;;;;;5017108;28;20645;-87
2022/05/21 07:13:23;;;;;;;16.63;7.47;;;17.20;71.70;;;;;;5035425;28;20223;-87
2022/05/21 07:15:50;;;;;;;17.65;8.48;;;17.30;72.10;;;;;;5038266;28;20192;-87
2022/05/21 07:18:18;;;;;;;20.20;10.55;;;17.20;71.90;;;;;;5019956;28;20206;-90
2022/05/21 07:20:44;;;;;;;21.70;9.55;;;17.00;71.90;;;;;;5004320;28;20657;-90
2022/05/21 07:23:11;;;;;;;16.35;7.93;;;17.00;72.20;;;;;;5040036;28;20190;-93
2022/05/21 07:25:41;;;;;;;27.50;8.90;;;17.20;72.50;;;;;;5025566;28;20173;-91
2022/05/21 07:28:08;;;;;;;23.40;8.90;;;17.20;72.30;;;;;;5007085;28;20190;-90
2022/05/21 07:30:35;;;;;;;19.63;8.35;;;17.20;72.30;;;;;;5009552;28;20186;-90
2022/05/21 07:33:01;;;;;;;19.80;8.35;;;17.30;72.20;;;;;;5021709;28;20174;-90
2022/05/21 07:35:28;;;;;;;21.53;8.47;;;17.30;71.30;;;;;;5022357;28;20269;-90
2022/05/21 07:37:54;;;;;;;20.90;8.52;;;17.40;71.80;;;;;;5001712;28;20899;-90
2022/05/21 07:40:24;;;;;;;17.45;8.15;;;17.40;71.20;;;;;;5010756;28;20169;-89
2022/05/21 07:42:50;;;;;;;16.30;7.18;;;17.60;70.80;;;;;;5023150;28;20185;-90
2022/05/21 07:45:18;;;;;;;18.07;9.20;;;17.60;70.20;;;;;;5022174;28;20177;-89
2022/05/21 07:47:43;;;;;;;15.77;7.95;;;17.50;71.00;;;;;;5022559;28;20765;-91
2022/05/21 07:50:10;;;;;;;23.70;8.80;;;17.70;69.90;;;;;;5049601;28;20266;-89
2022/05/21 07:52:36;;;;;;;26.85;9.73;;;17.50;69.70;;;;;;5026262;28;20265;-88
2022/05/21 07:55:02;;;;;;;17.97;8.87;;;17.40;70.40;;;;;;5045489;28;20182;-89
2022/05/21 07:57:30;;;;;;;19.55;9.20;;;17.30;71.00;;;;;;5031817;28;20232;-89
2022/05/21 07:59:55;;;;;;;24.33;8.93;;;17.10;71.10;;;;;;5036798;28;20185;-88
2022/05/21 08:02:22;;;;;;;20.23;7.97;;;17.00;71.50;;;;;;5042122;28;20174;-89
2022/05/21 08:04:48;;;;;;;15.82;8.65;;;17.10;71.90;;;;;;5040829;28;20210;-91
2022/05/21 08:07:15;;;;;;;17.00;8.00;;;17.30;71.40;;;;;;5031132;28;20217;-90
2022/05/21 08:09:41;;;;;;;18.92;8.82;;;17.40;70.90;;;;;;5030269;28;20286;-91
2022/05/21 08:12:08;;;;;;;23.50;11.27;;;17.50;71.00;;;;;;5033671;28;20182;-92
2022/05/21 08:14:34;;;;;;;24.10;11.52;;;17.60;70.40;;;;;;5026117;28;20222;-92
2022/05/21 08:17:00;;;;;;;20.42;10.30;;;17.70;69.90;;;;;;5027555;28;20217;-92
2022/05/21 08:19:26;;;;;;;19.38;11.05;;;17.90;69.30;;;;;;5025671;28;20178;-92
2022/05/21 08:21:53;;;;;;;18.88;12.60;;;18.00;68.50;;;;;;5023261;28;20190;-89
2022/05/21 08:27:04;;;;;;;22.67;11.60;;;18.30;67.30;;;;;;5036338;28;20607;-90
2022/05/21 08:29:33;;;;;;;25.10;15.15;;;18.50;66.20;;;;;;5020051;28;20170;-91
2022/05/21 08:32:00;;;;;;;22.15;13.50;;;18.40;65.70;;;;;;5033087;28;20598;-90
2022/05/21 08:34:27;;;;;;;29.10;13.48;;;18.30;66.10;;;;;;5019003;28;20265;-91
2022/05/21 08:36:53;;;;;;;22.70;12.35;;;18.30;67.00;;;;;;5020154;28;20582;-90
2022/05/21 08:39:20;;;;;;;21.42;10.68;;;18.50;65.10;;;;;;5024640;28;20185;-91
2022/05/21 08:42:06;;;;;;;16.52;11.35;;;18.70;64.60;;;;;;5019273;28;20185;-91
2022/05/21 08:44:47;;;;;;;24.13;12.10;;;18.70;65.10;;;;;;5021717;28;20189;-91
2022/05/21 08:47:37;;;;;;;24.92;12.23;;;18.70;64.80;;;;;;5004821;28;20210;-91
2022/05/21 08:50:20;;;;;;;17.90;10.68;;;18.60;64.70;;;;;;5020078;28;20245;-91
2022/05/21 08:53:06;;;;;;;17.95;12.95;;;18.40;64.50;;;;;;5019344;28;20170;-91
2022/05/21 08:55:42;;;;;;;26.38;12.38;;;18.30;65.20;;;;;;5019632;28;20189;-90
2022/05/21 08:58:08;;;;;;;31.48;11.85;;;18.20;66.10;;;;;;5018938;28;20201;-91
2022/05/21 09:00:41;;;;;;;21.80;10.27;;;18.50;64.90;;;;;;5020187;28;20643;-91
2022/05/21 09:03:09;;;;;;;23.80;11.18;;;18.30;65.10;;;;;;5023657;28;20228;-91
2022/05/21 09:05:37;;;;;;;20.98;12.00;;;18.40;65.50;;;;;;5033157;28;20240;-91
2022/05/21 09:08:07;;;;;;;26.60;10.38;;;18.30;65.70;;;;;;5050133;28;20205;-91
2022/05/21 09:11:01;;;;;;;20.00;9.88;;;18.10;66.20;;;;;;5028665;28;20236;-91
2022/05/21 09:13:57;;;;;;;15.35;9.18;;;18.00;65.80;;;;;;5032966;28;20807;-90
2022/05/21 09:19:08;;;;;;;19.10;11.55;;;17.90;66.50;;;;;;5030565;28;20213;-91
2022/05/21 09:21:47;;;;;;;22.30;12.88;;;18.00;65.50;;;;;;5019482;28;20192;-91
2022/05/21 09:24:42;;;;;;;24.70;13.98;;;18.00;65.50;;;;;;5021682;28;20212;-91
2022/05/21 09:27:49;;;;;;;21.45;13.05;;;18.00;65.00;;;;;;5030991;28;20196;-92
2022/05/21 09:30:23;;;;;;;19.75;11.85;;;18.10;64.80;;;;;;5024999;28;20231;-92
2022/05/21 09:32:53;;;;;;;15.57;11.50;;;18.30;64.20;;;;;;5025257;28;20180;-91
2022/05/21 09:35:28;;;;;;;12.98;9.05;;;18.40;64.00;;;;;;5025457;28;20174;-91
2022/05/21 09:37:54;;;;;;;18.65;10.38;;;18.80;61.80;;;;;;5043639;28;20748;-91
2022/05/21 09:40:34;;;;;;;15.70;11.03;;;19.10;61.70;;;;;;5030443;28;20247;-91
2022/05/21 09:46:16;;;;;;;21.92;11.85;;;19.30;60.30;;;;;;5038177;28;20169;-89
2022/05/21 09:48:48;;;;;;;22.20;12.52;;;19.50;58.70;;;;;;5022963;28;20202;-89
2022/05/21 09:51:22;;;;;;;22.95;11.43;;;19.20;60.10;;;;;;5022389;28;20250;-89
2022/05/21 09:53:48;;;;;;;24.63;14.13;;;19.00;60.20;;;;;;5047513;28;20271;-89
2022/05/21 09:56:33;;;;;;;19.77;12.20;;;18.80;60.40;;;;;;5050076;28;20196;-90
2022/05/21 09:59:15;;;;;;;19.38;11.52;;;18.80;61.00;;;;;;5020356;28;20181;-90
2022/05/21 10:01:53;;;;;;;18.50;10.48;;;19.00;61.30;;;;;;5050234;28;20231;-90
2022/05/21 10:04:40;;;;;;;15.18;9.85;;;18.90;61.40;;;;;;5037059;28;20189;-89
2022/05/21 10:07:15;;;;;;;19.35;9.55;;;19.40;58.60;;;;;;5036360;28;20208;-89
2022/05/21 10:12:41;;;;;;;16.27;9.80;;;19.30;58.20;;;;;;5041357;28;20250;-89
2022/05/21 10:15:24;;;;;;;24.17;9.82;;;19.50;58.00;;;;;;5031923;28;20178;-90
2022/05/21 10:17:59;;;;;;;18.95;10.20;;;19.40;57.90;;;;;;5018499;28;20220;-89
2022/05/21 10:20:27;;;;;;;16.67;9.68;;;19.50;58.10;;;;;;5018127;28;20211;-89
2022/05/21 10:22:53;;;;;;;19.90;10.00;;;19.50;57.90;;;;;;5018187;28;20669;-89
2022/05/21 10:25:22;;;;;;;16.10;9.07;;;19.60;58.30;;;;;;5037438;28;20188;-89
2022/05/21 10:28:03;;;;;;;18.60;8.87;;;19.60;57.80;;;;;;5020765;28;20677;-90
2022/05/21 10:30:38;;;;;;;12.70;8.02;;;19.50;57.10;;;;;;5040490;28;20412;-90
2022/05/21 10:33:12;;;;;;;18.42;8.70;;;19.40;57.90;;;;;;5025130;28;20239;-90
2022/05/21 10:36:19;;;;;;;14.13;7.45;;;19.50;57.40;;;;;;5020668;28;20172;-91
2022/05/21 10:39:03;;;;;;;12.88;7.10;;;19.30;57.20;;;;;;4997704;28;20281;-89
2022/05/21 10:42:02;;;;;;;19.88;9.07;;;19.40;57.80;;;;;;4999179;28;20213;-90
2022/05/21 10:44:53;;;;;;;8.38;5.65;;;19.70;62.50;;;;;;5022402;28;20677;-89
2022/05/21 10:48:02;;;;;;;12.90;7.65;;;20.00;62.60;;;;;;5029099;28;20186;-89
2022/05/21 10:50:29;;;;;;;9.57;5.67;;;20.20;59.90;;;;;;5017193;28;20182;-89
2022/05/21 10:53:06;;;;;;;14.30;7.30;;;20.50;59.70;;;;;;5017854;28;20421;-90
2022/05/21 10:55:41;;;;;;;9.37;5.73;;;20.50;58.30;;;;;;5019453;28;20432;-90
2022/05/21 10:58:34;;;;;;;15.67;7.40;;;20.60;58.00;;;;;;5037304;28;20443;-89
2022/05/21 11:01:01;;;;;;;18.67;6.90;;;21.00;54.10;;;;;;5039636;28;20417;-91
2022/05/21 11:03:39;;;;;;;15.57;6.83;;;20.90;55.10;;;;;;5021832;28;20460;-90
2022/05/21 11:06:24;;;;;;;13.77;6.50;;;20.80;54.80;;;;;;5006747;28;20537;-90
2022/05/21 11:09:09;;;;;;;13.63;6.37;;;20.90;54.60;;;;;;5007344;28;20437;-89
2022/05/21 11:11:57;;;;;;;11.50;5.30;;;20.80;56.00;;;;;;5020502;28;20420;-91
2022/05/21 11:14:52;;;;;;;12.27;6.33;;;21.20;55.10;;;;;;5038885;28;20417;-88
2022/05/21 11:17:44;;;;;;;14.03;6.50;;;21.10;52.70;;;;;;5016731;28;20444;-89
2022/05/21 11:20:16;;;;;;;10.83;6.27;;;21.00;52.20;;;;;;5016682;28;20516;-89
2022/05/21 11:22:56;;;;;;;12.23;6.70;;;20.80;53.40;;;;;;5016319;28;20427;-89
2022/05/21 11:25:29;;;;;;;7.67;5.53;;;20.50;54.40;;;;;;5022230;28;20555;-90
2022/05/21 11:28:14;;;;;;;11.57;6.80;;;20.40;55.70;;;;;;5022812;28;20500;-89
2022/05/21 11:30:40;;;;;;;15.37;7.80;;;20.50;54.70;;;;;;5024858;28;20405;-88
2022/05/21 11:38:58;;;;;;;10.53;8.03;;;20.20;53.90;;;;;;5021339;28;20240;-89
2022/05/21 11:42:08;;;;;;;9.70;6.43;;;20.00;53.00;;;;;;5015070;28;20409;-89
2022/05/21 11:45:04;;;;;;;13.93;8.18;;;19.90;54.80;;;;;;5005269;28;20461;-88
2022/05/21 11:47:36;;;;;;;9.37;7.33;;;20.00;53.90;;;;;;5018900;28;20686;-89
2022/05/21 11:50:01;;;;;;;11.33;6.03;;;20.40;55.10;;;;;;4998935;28;20780;-89
2022/05/21 11:52:27;;;;;;;13.50;8.30;;;20.40;55.10;;;;;;5003604;28;20406;-88
2022/05/21 11:55:01;;;;;;;15.57;7.97;;;20.40;53.70;;;;;;4999230;28;20201;-88
2022/05/21 11:57:43;;;;;;;11.57;6.73;;;20.50;54.10;;;;;;5018435;28;20264;-89
2022/05/21 12:00:18;;;;;;;13.73;7.43;;;20.60;54.10;;;;;;5015717;28;20763;-89
2022/05/21 12:02:53;;;;;;;15.40;6.80;;;20.70;52.90;;;;;;5000908;28;20416;-89
2022/05/21 12:08:22;;;;;;;11.33;6.70;;;20.70;52.40;;;;;;5019605;28;20560;-89
2022/05/21 12:10:57;;;;;;;12.30;7.37;;;20.80;50.90;;;;;;5001504;28;20409;-89
2022/05/21 12:13:34;;;;;;;10.13;7.07;;;20.70;51.20;;;;;;5019137;28;20573;-89
2022/05/21 12:16:01;;;;;;;14.40;7.20;;;20.60;50.70;;;;;;5026476;28;20432;-91
2022/05/21 12:18:40;;;;;;;19.77;6.93;;;20.60;51.00;;;;;;5025562;28;20452;-90
2022/05/21 12:21:13;;;;;;;14.13;6.60;;;20.80;50.80;;;;;;5025250;28;20408;-91
2022/05/21 12:23:42;;;;;;;11.20;5.20;;;20.70;50.80;;;;;;5025107;28;20835;-90
2022/05/21 12:26:21;;;;;;;19.73;6.60;;;20.90;51.00;;;;;;5029094;28;20421;-91
2022/05/21 12:28:56;;;;;;;12.70;6.43;;;21.10;50.80;;;;;;5032317;28;20444;-89
2022/05/21 12:31:26;;;;;;;16.83;6.67;;;21.40;47.90;;;;;;5022512;28;20435;-88
2022/05/21 12:34:14;;;;;;;11.90;6.00;;;21.40;47.80;;;;;;5038755;28;20401;-88
2022/05/21 12:37:08;;;;;;;10.83;6.30;;;21.20;47.40;;;;;;5019604;28;20496;-88
2022/05/21 12:40:06;;;;;;;15.20;5.57;;;21.20;47.40;;;;;;5036957;28;20404;-88
2022/05/21 12:42:52;;;;;;;10.77;5.97;;;21.30;48.00;;;;;;5018582;28;20408;-88
2022/05/21 12:45:45;;;;;;;12.13;5.40;;;21.10;48.00;;;;;;5018690;28;20535;-88
2022/05/21 12:48:31;;;;;;;7.00;5.30;;;21.20;48.70;;;;;;5018029;28;20440;-88
2022/05/21 12:50:59;;;;;;;6.07;4.60;;;21.30;48.30;;;;;;5036562;28;20393;-88
2022/05/21 12:53:32;;;;;;;10.03;3.93;;;21.20;49.70;;;;;;5019005;28;20419;-89
2022/05/21 12:56:00;;;;;;;7.30;4.73;;;21.20;49.70;;;;;;5018984;28;20444;-88
2022/05/21 12:58:26;;;;;;;8.80;5.10;;;21.10;48.80;;;;;;5019963;28;20437;-89
2022/05/21 13:00:54;;;;;;;10.23;4.90;;;21.30;47.60;;;;;;5039995;28;20428;-88
2022/05/21 13:03:22;;;;;;;13.53;5.83;;;21.60;47.00;;;;;;5039221;28;20456;-89
2022/05/21 13:05:58;;;;;;;8.10;4.30;;;21.60;47.10;;;;;;5022403;28;20463;-88
2022/05/21 13:08:26;;;;;;;8.37;5.07;;;21.70;47.60;;;;;;5041891;28;20444;-89
2022/05/21 13:11:07;;;;;;;8.67;5.03;;;21.40;46.40;;;;;;5012840;28;20892;-89
2022/05/21 13:13:37;;;;;;;10.13;5.33;;;21.30;47.90;;;;;;5021144;28;20417;-88
2022/05/21 13:16:06;;;;;;;11.47;5.10;;;21.40;47.20;;;;;;5023245;28;20455;-88
2022/05/21 13:18:50;;;;;;;6.10;4.10;;;21.40;47.20;;;;;;5023801;28;20506;-90
2022/05/21 13:21:28;;;;;;;11.63;5.43;;;21.80;46.20;;;;;;5045763;28;20405;-91
2022/05/21 13:24:06;;;;;;;7.83;4.67;;;21.90;47.70;;;;;;5035703;28;20459;-90
2022/05/21 13:26:34;;;;;;;9.07;6.40;;;21.90;47.30;;;;;;5042138;28;20408;-90
2022/05/21 13:29:29;;;;;;;8.97;4.73;;;22.10;47.70;;;;;;5021582;28;20425;-91
2022/05/21 13:32:26;;;;;;;10.60;5.47;;;22.10;48.10;;;;;;5006462;28;20432;-91
2022/05/21 13:35:15;;;;;;;7.97;4.93;;;22.20;45.90;;;;;;5023289;28;20488;-90